createdAt,value
2023-10-23T00:00:06.231Z,25.03
2023-10-23T00:00:16.255Z,25.03
2023-10-23T00:00:26.315Z,25.03
2023-10-23T00:00:36.479Z,25.04
2023-10-23T00:00:46.489Z,25.03
2023-10-23T00:00:56.571Z,25.04
2023-10-23T00:01:06.548Z,25.04
2023-10-23T00:01:16.526Z,25.04
2023-10-23T00:01:26.627Z,25.03
2023-10-23T00:01:36.665Z,25.04
2023-10-23T00:01:46.706Z,25.04
2023-10-23T00:01:56.717Z,25.04
2023-10-23T00:02:06.727Z,25.04
2023-10-23T00:02:16.714Z,25.05
2023-10-23T00:02:26.734Z,25.05
2023-10-23T00:02:36.757Z,25.05
2023-10-23T00:02:46.774Z,25.05
2023-10-23T00:02:56.829Z,25.05
2023-10-23T00:03:06.937Z,25.06
2023-10-23T00:03:17.072Z,25.05
2023-10-23T00:03:27.313Z,25.05
2023-10-23T00:03:37.444Z,25.05
2023-10-23T00:03:47.630Z,25.05
2023-10-23T00:03:57.832Z,25.06
2023-10-23T00:04:07.968Z,25.05
2023-10-23T00:04:18.022Z,25.06
2023-10-23T00:04:28.212Z,25.05
2023-10-23T00:04:38.565Z,25.06
2023-10-23T00:04:48.606Z,25.06
2023-10-23T00:04:58.764Z,25.06
2023-10-23T00:05:08.634Z,25.06
2023-10-23T00:05:18.690Z,25.05
2023-10-23T00:05:28.740Z,25.06
2023-10-23T00:05:38.760Z,25.05
2023-10-23T00:05:48.691Z,25.05
2023-10-23T00:05:58.717Z,25.05
2023-10-23T00:06:08.756Z,25.06
2023-10-23T00:06:18.842Z,25.06
2023-10-23T00:06:28.894Z,25.07
2023-10-23T00:06:38.924Z,25.07
2023-10-23T00:06:49.003Z,25.07
2023-10-23T00:06:59.052Z,25.07
2023-10-23T00:07:09.057Z,25.07
2023-10-23T00:07:19.318Z,25.08
2023-10-23T00:07:29.321Z,25.08
2023-10-23T00:07:39.343Z,25.08
2023-10-23T00:07:49.350Z,25.09
2023-10-23T00:07:59.365Z,25.09
2023-10-23T00:08:09.375Z,25.08
2023-10-23T00:08:19.374Z,25.09
2023-10-23T00:08:29.394Z,25.09
2023-10-23T00:08:39.409Z,25.09
2023-10-23T00:08:49.400Z,25.09
2023-10-23T00:08:59.412Z,25.09
2023-10-23T00:09:09.438Z,25.09
2023-10-23T00:09:19.452Z,25.09
2023-10-23T00:09:29.550Z,25.09
2023-10-23T00:09:39.611Z,25.09
2023-10-23T00:09:49.698Z,25.09
2023-10-23T00:09:59.690Z,25.09
2023-10-23T00:10:09.967Z,25.10
2023-10-23T00:10:19.974Z,25.09
2023-10-23T00:10:29.970Z,25.10
2023-10-23T00:10:39.966Z,25.10
2023-10-23T00:10:49.985Z,25.11
2023-10-23T00:10:59.988Z,25.11
2023-10-23T00:11:09.989Z,25.10
2023-10-23T00:11:20.000Z,25.11
2023-10-23T00:11:30.002Z,25.11
2023-10-23T00:11:40.015Z,25.10
2023-10-23T00:11:50.041Z,25.10
2023-10-23T00:12:00.045Z,25.11
2023-10-23T00:12:10.070Z,25.10
2023-10-23T00:12:20.080Z,25.11
2023-10-23T00:12:30.155Z,25.11
2023-10-23T00:12:40.197Z,25.11
2023-10-23T00:12:50.245Z,25.11
2023-10-23T00:13:00.255Z,25.11
2023-10-23T00:13:10.322Z,25.11
2023-10-23T00:13:20.329Z,25.10
2023-10-23T00:13:30.340Z,25.11
2023-10-23T00:13:40.343Z,25.11
2023-10-23T00:13:50.352Z,25.11
2023-10-23T00:14:00.374Z,25.12
2023-10-23T00:14:10.376Z,25.11
2023-10-23T00:14:20.401Z,25.11
2023-10-23T00:14:30.396Z,25.11
2023-10-23T00:14:40.420Z,25.12
2023-10-23T00:14:50.438Z,25.12
2023-10-23T00:15:00.442Z,25.11
2023-10-23T00:15:10.437Z,25.12
2023-10-23T00:15:20.510Z,25.12
2023-10-23T00:15:30.558Z,25.11
2023-10-23T00:15:40.665Z,25.11
2023-10-23T00:15:50.754Z,25.12
2023-10-23T00:16:00.777Z,25.12
2023-10-23T00:16:10.807Z,25.12
2023-10-23T00:16:20.871Z,25.11
2023-10-23T00:16:31.171Z,25.12
2023-10-23T00:16:41.265Z,25.12
2023-10-23T00:16:51.356Z,25.12
2023-10-23T00:17:01.332Z,25.12
2023-10-23T00:17:11.343Z,25.13
2023-10-23T00:17:21.344Z,25.12
2023-10-23T00:17:31.361Z,25.12
2023-10-23T00:17:41.377Z,25.13
2023-10-23T00:17:51.447Z,25.12
2023-10-23T00:18:01.460Z,25.12
2023-10-23T00:18:11.475Z,25.12
2023-10-23T00:18:21.549Z,25.13
2023-10-23T00:18:31.622Z,25.13
2023-10-23T00:18:41.649Z,25.12
2023-10-23T00:18:51.797Z,25.13
2023-10-23T00:19:01.809Z,25.13
2023-10-23T00:19:12.015Z,25.12
2023-10-23T00:19:22.039Z,25.12
2023-10-23T00:19:32.038Z,25.13
2023-10-23T00:19:42.065Z,25.13
2023-10-23T00:19:52.065Z,25.13
2023-10-23T00:20:02.209Z,25.13
2023-10-23T00:20:12.247Z,25.12
2023-10-23T00:20:22.283Z,25.12
2023-10-23T00:20:32.295Z,25.13
2023-10-23T00:20:42.301Z,25.13
2023-10-23T00:20:52.310Z,25.13
2023-10-23T00:21:02.313Z,25.13
2023-10-23T00:21:12.322Z,25.13
2023-10-23T00:21:22.391Z,25.12
2023-10-23T00:21:32.440Z,25.13
2023-10-23T00:21:42.474Z,25.12
2023-10-23T00:21:52.516Z,25.13
2023-10-23T00:22:02.536Z,25.13
2023-10-23T00:22:12.547Z,25.12
2023-10-23T00:22:22.562Z,25.13
2023-10-23T00:22:32.578Z,25.12
2023-10-23T00:22:42.562Z,25.12
2023-10-23T00:22:52.572Z,25.13
2023-10-23T00:23:02.590Z,25.12
2023-10-23T00:23:12.629Z,25.13
2023-10-23T00:23:22.631Z,25.12
2023-10-23T00:23:32.645Z,25.12
2023-10-23T00:23:42.645Z,25.12
2023-10-23T00:23:52.698Z,25.12
2023-10-23T00:24:02.697Z,25.13
2023-10-23T00:24:12.696Z,25.12
2023-10-23T00:24:22.773Z,25.12
2023-10-23T00:24:33.137Z,25.12
2023-10-23T00:24:43.189Z,25.12
2023-10-23T00:24:53.251Z,25.12
2023-10-23T00:25:03.287Z,25.11
2023-10-23T00:25:13.294Z,25.12
2023-10-23T00:25:23.319Z,25.11
2023-10-23T00:25:33.311Z,25.12
2023-10-23T00:25:43.323Z,25.12
2023-10-23T00:25:53.353Z,25.12
2023-10-23T00:26:03.410Z,25.12
2023-10-23T00:26:13.398Z,25.12
2023-10-23T00:26:23.417Z,25.11
2023-10-23T00:26:33.421Z,25.11
2023-10-23T00:26:43.435Z,25.12
2023-10-23T00:26:53.452Z,25.11
2023-10-23T00:27:03.457Z,25.11
2023-10-23T00:27:13.492Z,25.11
2023-10-23T00:27:23.518Z,25.11
2023-10-23T00:27:33.535Z,25.10
2023-10-23T00:27:43.645Z,25.10
2023-10-23T00:27:53.719Z,25.10
2023-10-23T00:28:03.781Z,25.10
2023-10-23T00:28:13.825Z,25.11
2023-10-23T00:28:23.803Z,25.10
2023-10-23T00:28:33.934Z,25.10
2023-10-23T00:28:44.057Z,25.10
2023-10-23T00:28:54.060Z,25.09
2023-10-23T00:29:04.344Z,25.09
2023-10-23T00:29:14.360Z,25.09
2023-10-23T00:29:24.363Z,25.09
2023-10-23T00:29:34.376Z,25.08
2023-10-23T00:29:44.384Z,25.09
2023-10-23T00:29:54.392Z,25.08
2023-10-23T00:30:04.408Z,25.08
2023-10-23T00:30:14.446Z,25.08
2023-10-23T00:30:24.450Z,25.08
2023-10-23T00:30:34.482Z,25.07
2023-10-23T00:30:44.583Z,25.07
2023-10-23T00:30:54.730Z,25.07
2023-10-23T00:31:04.686Z,25.06
2023-10-23T00:31:14.745Z,25.07
2023-10-23T00:31:24.797Z,25.06
2023-10-23T00:31:34.859Z,25.06
2023-10-23T00:31:44.881Z,25.06
2023-10-23T00:31:54.962Z,25.06
2023-10-23T00:32:04.971Z,25.06
2023-10-23T00:32:15.012Z,25.06
2023-10-23T00:32:25.076Z,25.05
2023-10-23T00:32:35.159Z,25.05
2023-10-23T00:32:45.296Z,25.05
2023-10-23T00:32:55.439Z,25.05
2023-10-23T00:33:05.603Z,25.05
2023-10-23T00:33:15.760Z,25.05
2023-10-23T00:33:25.846Z,25.04
2023-10-23T00:33:36.006Z,25.04
2023-10-23T00:33:46.111Z,25.04
2023-10-23T00:33:56.046Z,25.03
2023-10-23T00:34:06.045Z,25.03
2023-10-23T00:34:16.077Z,25.03
2023-10-23T00:34:26.168Z,25.02
2023-10-23T00:34:36.408Z,25.02
2023-10-23T00:34:46.284Z,25.02
2023-10-23T00:34:56.312Z,25.02
2023-10-23T00:35:06.307Z,25.02
2023-10-23T00:35:16.580Z,25.02
2023-10-23T00:35:26.576Z,25.02
2023-10-23T00:35:36.574Z,25.02
2023-10-23T00:35:46.577Z,25.01
2023-10-23T00:35:56.584Z,25.01
2023-10-23T00:36:06.597Z,25.01
2023-10-23T00:36:16.623Z,25.01
2023-10-23T00:36:26.633Z,25.01
2023-10-23T00:36:36.806Z,25.01
2023-10-23T00:36:46.693Z,25.00
2023-10-23T00:36:56.746Z,25.00
2023-10-23T00:37:06.745Z,24.99
2023-10-23T00:37:16.749Z,25.00
2023-10-23T00:37:26.756Z,25.00
2023-10-23T00:37:36.793Z,24.99
2023-10-23T00:37:46.803Z,24.99
2023-10-23T00:37:56.800Z,24.99
2023-10-23T00:38:06.810Z,24.99
2023-10-23T00:38:16.824Z,24.98
2023-10-23T00:38:26.822Z,24.98
2023-10-23T00:38:36.823Z,24.98
2023-10-23T00:38:46.837Z,24.97
2023-10-23T00:38:56.843Z,24.97
2023-10-23T00:39:06.844Z,24.98
2023-10-23T00:39:16.868Z,24.96
2023-10-23T00:39:26.945Z,24.96
2023-10-23T00:39:36.963Z,24.96
2023-10-23T00:39:47.000Z,24.97
2023-10-23T00:39:57.101Z,24.96
2023-10-23T00:40:07.103Z,24.96
2023-10-23T00:40:17.115Z,24.96
2023-10-23T00:40:27.123Z,24.95
2023-10-23T00:40:37.132Z,24.95
2023-10-23T00:40:47.147Z,24.95
2023-10-23T00:40:57.155Z,24.95
2023-10-23T00:41:07.161Z,24.94
2023-10-23T00:41:17.192Z,24.95
2023-10-23T00:41:27.188Z,24.94
2023-10-23T00:41:37.190Z,24.94
2023-10-23T00:41:47.218Z,24.93
2023-10-23T00:41:57.222Z,24.93
2023-10-23T00:42:07.246Z,24.93
2023-10-23T00:42:17.274Z,24.93
2023-10-23T00:42:27.348Z,24.92
2023-10-23T00:42:37.373Z,24.92
2023-10-23T00:42:47.416Z,24.92
2023-10-23T00:42:57.459Z,24.92
2023-10-23T00:43:07.478Z,24.92
2023-10-23T00:43:17.526Z,24.91
2023-10-23T00:43:27.531Z,24.90
2023-10-23T00:43:37.542Z,24.90
2023-10-23T00:43:47.539Z,24.90
2023-10-23T00:43:57.546Z,24.90
2023-10-23T00:44:07.555Z,24.90
2023-10-23T00:44:17.577Z,24.90
2023-10-23T00:44:27.588Z,24.89
2023-10-23T00:44:37.842Z,24.89
2023-10-23T00:44:47.660Z,24.88
2023-10-23T00:44:57.665Z,24.88
2023-10-23T00:45:07.672Z,24.88
2023-10-23T00:45:17.707Z,24.89
2023-10-23T00:45:27.745Z,24.88
2023-10-23T00:45:37.781Z,24.87
2023-10-23T00:45:47.866Z,24.87
2023-10-23T00:45:57.874Z,24.87
2023-10-23T00:46:07.882Z,24.86
2023-10-23T00:46:17.941Z,24.86
2023-10-23T00:46:27.976Z,24.86
2023-10-23T00:46:37.987Z,24.86
2023-10-23T00:46:48.012Z,24.86
2023-10-23T00:46:58.071Z,24.85
2023-10-23T00:47:08.094Z,24.85
2023-10-23T00:47:18.095Z,24.85
2023-10-23T00:47:28.148Z,24.85
2023-10-23T00:47:38.245Z,24.84
2023-10-23T00:47:48.338Z,24.84
2023-10-23T00:47:58.402Z,24.83
2023-10-23T00:48:08.435Z,24.83
2023-10-23T00:48:18.479Z,24.83
2023-10-23T00:48:28.585Z,24.83
2023-10-23T00:48:38.842Z,24.82
2023-10-23T00:48:48.890Z,24.82
2023-10-23T00:48:58.895Z,24.82
2023-10-23T00:49:09.164Z,24.83
2023-10-23T00:49:19.163Z,24.82
2023-10-23T00:49:29.167Z,24.82
2023-10-23T00:49:39.190Z,24.82
2023-10-23T00:49:49.314Z,24.82
2023-10-23T00:49:59.323Z,24.81
2023-10-23T00:50:09.321Z,24.81
2023-10-23T00:50:19.328Z,24.81
2023-10-23T00:50:29.342Z,24.80
2023-10-23T00:50:39.381Z,24.81
2023-10-23T00:50:49.673Z,24.80
2023-10-23T00:50:59.758Z,24.80
2023-10-23T00:51:09.843Z,24.80
2023-10-23T00:51:19.894Z,24.80
2023-10-23T00:51:29.978Z,24.79
2023-10-23T00:51:40.021Z,24.79
2023-10-23T00:51:50.095Z,24.79
2023-10-23T00:52:00.231Z,24.79
2023-10-23T00:52:10.223Z,24.79
2023-10-23T00:52:20.232Z,24.79
2023-10-23T00:52:30.605Z,24.78
2023-10-23T00:52:40.629Z,24.77
2023-10-23T00:52:50.622Z,24.77
2023-10-23T00:53:00.642Z,24.77
2023-10-23T00:53:10.657Z,24.76
2023-10-23T00:53:20.655Z,24.76
2023-10-23T00:53:30.673Z,24.77
2023-10-23T00:53:40.680Z,24.76
2023-10-23T00:53:50.685Z,24.77
2023-10-23T00:54:00.684Z,24.76
2023-10-23T00:54:10.704Z,24.76
2023-10-23T00:54:20.819Z,24.76
2023-10-23T00:54:30.857Z,24.75
2023-10-23T00:54:41.189Z,24.74
2023-10-23T00:54:51.137Z,24.74
2023-10-23T00:55:01.219Z,24.73
2023-10-23T00:55:11.175Z,24.73
2023-10-23T00:55:21.171Z,24.73
2023-10-23T00:55:31.194Z,24.72
2023-10-23T00:55:41.192Z,24.73
2023-10-23T00:55:51.190Z,24.73
2023-10-23T00:56:01.317Z,24.73
2023-10-23T00:56:11.326Z,24.73
2023-10-23T00:56:21.332Z,24.72
2023-10-23T00:56:31.610Z,24.72
2023-10-23T00:56:41.628Z,24.72
2023-10-23T00:56:51.654Z,24.72
2023-10-23T00:57:01.647Z,24.72
2023-10-23T00:57:11.652Z,24.71
2023-10-23T00:57:21.704Z,24.71
2023-10-23T00:57:31.703Z,24.71
2023-10-23T00:57:41.778Z,24.71
2023-10-23T00:57:51.822Z,24.71
2023-10-23T00:58:01.812Z,24.71
2023-10-23T00:58:11.816Z,24.70
2023-10-23T00:58:21.875Z,24.70
2023-10-23T00:58:31.863Z,24.69
2023-10-23T00:58:41.864Z,24.70
2023-10-23T00:58:51.882Z,24.69
2023-10-23T00:59:01.894Z,24.69
2023-10-23T00:59:11.894Z,24.69
2023-10-23T00:59:21.911Z,24.69
2023-10-23T00:59:31.926Z,24.67
2023-10-23T00:59:41.930Z,24.68
2023-10-23T00:59:51.937Z,24.68
2023-10-23T01:00:01.963Z,24.67
2023-10-23T01:00:11.958Z,24.67
2023-10-23T01:00:22.003Z,24.67
2023-10-23T01:00:32.047Z,24.67
2023-10-23T01:00:42.112Z,24.66
2023-10-23T01:00:52.258Z,24.65
2023-10-23T01:01:02.227Z,24.65
2023-10-23T01:01:12.354Z,24.65
2023-10-23T01:01:22.315Z,24.65
2023-10-23T01:01:32.376Z,24.65
2023-10-23T01:01:42.355Z,24.65
2023-10-23T01:01:52.440Z,24.64
2023-10-23T01:02:02.456Z,24.64
2023-10-23T01:02:12.485Z,24.64
2023-10-23T01:02:22.546Z,24.64
2023-10-23T01:02:32.619Z,24.63
2023-10-23T01:02:42.633Z,24.63
2023-10-23T01:02:52.751Z,24.64
2023-10-23T01:03:02.746Z,24.63
2023-10-23T01:03:12.799Z,24.63
2023-10-23T01:03:22.933Z,24.63
2023-10-23T01:03:33.042Z,24.62
2023-10-23T01:03:43.051Z,24.63
2023-10-23T01:03:53.146Z,24.62
2023-10-23T01:04:03.467Z,24.62
2023-10-23T01:04:13.473Z,24.62
2023-10-23T01:04:23.484Z,24.62
2023-10-23T01:04:33.490Z,24.62
2023-10-23T01:04:43.512Z,24.61
2023-10-23T01:04:53.515Z,24.61
2023-10-23T01:05:03.636Z,24.61
2023-10-23T01:05:13.650Z,24.61
2023-10-23T01:05:23.665Z,24.61
2023-10-23T01:05:33.678Z,24.61
2023-10-23T01:05:43.934Z,24.60
2023-10-23T01:05:53.940Z,24.60
2023-10-23T01:06:03.947Z,24.60
2023-10-23T01:06:14.426Z,24.59
2023-10-23T01:06:24.334Z,24.59
2023-10-23T01:06:34.361Z,24.59
2023-10-23T01:06:44.431Z,24.59
2023-10-23T01:06:54.732Z,24.59
2023-10-23T01:07:04.780Z,24.59
2023-10-23T01:07:14.792Z,24.59
2023-10-23T01:07:24.815Z,24.59
2023-10-23T01:07:34.820Z,24.59
2023-10-23T01:07:44.829Z,24.58
2023-10-23T01:07:54.837Z,24.58
2023-10-23T01:08:04.848Z,24.58
2023-10-23T01:08:14.848Z,24.57
2023-10-23T01:08:24.856Z,24.58
2023-10-23T01:08:34.873Z,24.58
2023-10-23T01:08:44.893Z,24.58
2023-10-23T01:08:54.890Z,24.57
2023-10-23T01:09:04.894Z,24.57
2023-10-23T01:09:14.978Z,24.57
2023-10-23T01:09:25.043Z,24.57
2023-10-23T01:09:35.085Z,24.56
2023-10-23T01:09:45.136Z,24.56
2023-10-23T01:09:55.203Z,24.57
2023-10-23T01:10:05.272Z,24.56
2023-10-23T01:10:15.280Z,24.56
2023-10-23T01:10:25.292Z,24.56
2023-10-23T01:10:35.287Z,24.56
2023-10-23T01:10:45.307Z,24.55
2023-10-23T01:10:55.589Z,24.55
2023-10-23T01:11:05.657Z,24.55
2023-10-23T01:11:15.800Z,24.55
2023-10-23T01:11:26.019Z,24.55
2023-10-23T01:11:36.108Z,24.55
2023-10-23T01:11:46.119Z,24.55
2023-10-23T01:11:56.378Z,24.54
2023-10-23T01:12:06.387Z,24.54
2023-10-23T01:12:16.445Z,24.54
2023-10-23T01:12:26.476Z,24.54
2023-10-23T01:12:36.487Z,24.53
2023-10-23T01:12:46.536Z,24.53
2023-10-23T01:12:56.620Z,24.53
2023-10-23T01:13:06.638Z,24.53
2023-10-23T01:13:16.649Z,24.52
2023-10-23T01:13:26.681Z,24.52
2023-10-23T01:13:36.685Z,24.52
2023-10-23T01:13:46.695Z,24.52
2023-10-23T01:13:56.701Z,24.52
2023-10-23T01:14:06.782Z,24.52
2023-10-23T01:14:16.833Z,24.52
2023-10-23T01:14:26.833Z,24.51
2023-10-23T01:14:37.075Z,24.51
2023-10-23T01:14:47.212Z,24.51
2023-10-23T01:14:57.210Z,24.51
2023-10-23T01:15:07.403Z,24.51
2023-10-23T01:15:17.666Z,24.51
2023-10-23T01:15:27.729Z,24.51
2023-10-23T01:15:37.790Z,24.51
2023-10-23T01:15:47.902Z,24.50
2023-10-23T01:15:57.827Z,24.50
2023-10-23T01:16:07.830Z,24.50
2023-10-23T01:16:17.926Z,24.50
2023-10-23T01:16:28.089Z,24.50
2023-10-23T01:16:38.191Z,24.49
2023-10-23T01:16:48.368Z,24.49
2023-10-23T01:16:58.545Z,24.48
2023-10-23T01:17:08.620Z,24.49
2023-10-23T01:17:18.637Z,24.49
2023-10-23T01:17:28.949Z,24.48
2023-10-23T01:17:38.966Z,24.48
2023-10-23T01:17:48.982Z,24.48
2023-10-23T01:17:59.059Z,24.48
2023-10-23T01:18:09.083Z,24.47
2023-10-23T01:18:19.101Z,24.47
2023-10-23T01:18:29.127Z,24.47
2023-10-23T01:18:39.195Z,24.47
2023-10-23T01:18:49.281Z,24.47
2023-10-23T01:18:59.316Z,24.47
2023-10-23T01:19:09.576Z,24.47
2023-10-23T01:19:19.700Z,24.46
2023-10-23T01:19:29.705Z,24.46
2023-10-23T01:19:39.975Z,24.47
2023-10-23T01:19:49.988Z,24.46
2023-10-23T01:19:59.996Z,24.46
2023-10-23T01:20:10.000Z,24.46
2023-10-23T01:20:20.017Z,24.45
2023-10-23T01:20:30.021Z,24.45
2023-10-23T01:20:40.058Z,24.45
2023-10-23T01:20:50.069Z,24.45
2023-10-23T01:21:00.078Z,24.45
2023-10-23T01:21:10.078Z,24.45
2023-10-23T01:21:20.142Z,24.44
2023-10-23T01:21:30.229Z,24.45
2023-10-23T01:21:40.292Z,24.44
2023-10-23T01:21:50.362Z,24.44
2023-10-23T01:22:00.372Z,24.44
2023-10-23T01:22:10.389Z,24.44
2023-10-23T01:22:20.390Z,24.44
2023-10-23T01:22:30.407Z,24.44
2023-10-23T01:22:40.414Z,24.44
2023-10-23T01:22:50.420Z,24.43
2023-10-23T01:23:00.433Z,24.43
2023-10-23T01:23:10.455Z,24.43
2023-10-23T01:23:20.458Z,24.43
2023-10-23T01:23:30.462Z,24.43
2023-10-23T01:23:40.472Z,24.42
2023-10-23T01:23:50.494Z,24.42
2023-10-23T01:24:00.498Z,24.42
2023-10-23T01:24:10.506Z,24.42
2023-10-23T01:24:20.526Z,24.42
2023-10-23T01:24:30.567Z,24.42
2023-10-23T01:24:40.617Z,24.42
2023-10-23T01:24:50.637Z,24.41
2023-10-23T01:25:00.717Z,24.41
2023-10-23T01:25:10.720Z,24.40
2023-10-23T01:25:20.725Z,24.41
2023-10-23T01:25:30.732Z,24.41
2023-10-23T01:25:40.752Z,24.41
2023-10-23T01:25:50.776Z,24.41
2023-10-23T01:26:00.785Z,24.40
2023-10-23T01:26:10.789Z,24.40
2023-10-23T01:26:20.792Z,24.40
2023-10-23T01:26:30.802Z,24.41
2023-10-23T01:26:40.813Z,24.40
2023-10-23T01:26:50.824Z,24.40
2023-10-23T01:27:00.819Z,24.40
2023-10-23T01:27:10.833Z,24.40
2023-10-23T01:27:20.852Z,24.39
2023-10-23T01:27:30.870Z,24.40
2023-10-23T01:27:40.911Z,24.40
2023-10-23T01:27:50.993Z,24.39
2023-10-23T01:28:00.997Z,24.39
2023-10-23T01:28:11.034Z,24.39
2023-10-23T01:28:21.054Z,24.39
2023-10-23T01:28:31.078Z,24.39
2023-10-23T01:28:41.066Z,24.39
2023-10-23T01:28:51.077Z,24.39
2023-10-23T01:29:01.083Z,24.39
2023-10-23T01:29:11.085Z,24.38
2023-10-23T01:29:21.110Z,24.38
2023-10-23T01:29:31.092Z,24.38
2023-10-23T01:29:41.100Z,24.38
2023-10-23T01:29:51.103Z,24.38
2023-10-23T01:30:01.128Z,24.39
2023-10-23T01:30:11.132Z,24.38
2023-10-23T01:30:21.177Z,24.38
2023-10-23T01:30:31.227Z,24.38
2023-10-23T01:30:41.300Z,24.37
2023-10-23T01:30:51.267Z,24.37
2023-10-23T01:31:01.441Z,24.36
2023-10-23T01:31:11.456Z,24.37
2023-10-23T01:31:21.412Z,24.37
2023-10-23T01:31:31.500Z,24.37
2023-10-23T01:31:41.555Z,24.37
2023-10-23T01:31:51.847Z,24.37
2023-10-23T01:32:01.830Z,24.37
2023-10-23T01:32:11.832Z,24.36
2023-10-23T01:32:21.837Z,24.37
2023-10-23T01:32:31.856Z,24.36
2023-10-23T01:32:41.873Z,24.36
2023-10-23T01:32:51.911Z,24.36
2023-10-23T01:33:02.027Z,24.36
2023-10-23T01:33:12.035Z,24.36
2023-10-23T01:33:22.067Z,24.36
2023-10-23T01:33:32.134Z,24.36
2023-10-23T01:33:42.312Z,24.35
2023-10-23T01:33:52.322Z,24.35
2023-10-23T01:34:02.347Z,24.35
2023-10-23T01:34:12.380Z,24.34
2023-10-23T01:34:22.448Z,24.35
2023-10-23T01:34:32.462Z,24.35
2023-10-23T01:34:42.720Z,24.34
2023-10-23T01:34:52.725Z,24.34
2023-10-23T01:35:02.723Z,24.34
2023-10-23T01:35:12.729Z,24.34
2023-10-23T01:35:22.749Z,24.34
2023-10-23T01:35:32.742Z,24.34
2023-10-23T01:35:42.740Z,24.34
2023-10-23T01:35:52.749Z,24.34
2023-10-23T01:36:02.750Z,24.34
2023-10-23T01:36:12.757Z,24.33
2023-10-23T01:36:22.790Z,24.34
2023-10-23T01:36:32.863Z,24.33
2023-10-23T01:36:42.914Z,24.33
2023-10-23T01:36:52.946Z,24.32
2023-10-23T01:37:02.946Z,24.33
2023-10-23T01:37:12.946Z,24.33
2023-10-23T01:37:22.948Z,24.33
2023-10-23T01:37:32.959Z,24.32
2023-10-23T01:37:42.973Z,24.32
2023-10-23T01:37:52.982Z,24.31
2023-10-23T01:38:02.998Z,24.32
2023-10-23T01:38:13.001Z,24.32
2023-10-23T01:38:23.007Z,24.31
2023-10-23T01:38:33.009Z,24.31
2023-10-23T01:38:43.103Z,24.31
2023-10-23T01:38:53.114Z,24.31
2023-10-23T01:39:03.121Z,24.31
2023-10-23T01:39:13.132Z,24.32
2023-10-23T01:39:23.187Z,24.31
2023-10-23T01:39:33.277Z,24.31
2023-10-23T01:39:43.333Z,24.31
2023-10-23T01:39:53.686Z,24.31
2023-10-23T01:40:03.681Z,24.31
2023-10-23T01:40:13.694Z,24.31
2023-10-23T01:40:23.726Z,24.31
2023-10-23T01:40:33.719Z,24.31
2023-10-23T01:40:43.764Z,24.31
2023-10-23T01:40:53.754Z,24.31
2023-10-23T01:41:03.758Z,24.30
2023-10-23T01:41:13.764Z,24.30
2023-10-23T01:41:23.765Z,24.30
2023-10-23T01:41:33.794Z,24.30
2023-10-23T01:41:43.821Z,24.30
2023-10-23T01:41:53.851Z,24.30
2023-10-23T01:42:03.847Z,24.29
2023-10-23T01:42:13.857Z,24.30
2023-10-23T01:42:23.939Z,24.30
2023-10-23T01:42:34.026Z,24.29
2023-10-23T01:42:44.191Z,24.29
2023-10-23T01:42:54.160Z,24.29
2023-10-23T01:43:04.196Z,24.29
2023-10-23T01:43:14.204Z,24.29
2023-10-23T01:43:24.463Z,24.29
2023-10-23T01:43:34.493Z,24.30
2023-10-23T01:43:44.519Z,24.28
2023-10-23T01:43:54.520Z,24.28
2023-10-23T01:44:04.654Z,24.29
2023-10-23T01:44:14.659Z,24.29
2023-10-23T01:44:24.658Z,24.29
2023-10-23T01:44:34.677Z,24.28
2023-10-23T01:44:44.681Z,24.28
2023-10-23T01:44:54.692Z,24.28
2023-10-23T01:45:04.962Z,24.28
2023-10-23T01:45:14.963Z,24.28
2023-10-23T01:45:25.042Z,24.28
2023-10-23T01:45:35.348Z,24.28
2023-10-23T01:45:45.366Z,24.28
2023-10-23T01:45:55.412Z,24.28
2023-10-23T01:46:05.450Z,24.28
2023-10-23T01:46:15.486Z,24.28
2023-10-23T01:46:25.641Z,24.28
2023-10-23T01:46:35.718Z,24.27
2023-10-23T01:46:45.819Z,24.27
2023-10-23T01:46:55.808Z,24.27
2023-10-23T01:47:05.809Z,24.27
2023-10-23T01:47:15.817Z,24.27
2023-10-23T01:47:25.834Z,24.26
2023-10-23T01:47:35.851Z,24.27
2023-10-23T01:47:45.938Z,24.26
2023-10-23T01:47:55.973Z,24.27
2023-10-23T01:48:06.049Z,24.27
2023-10-23T01:48:16.165Z,24.26
2023-10-23T01:48:26.482Z,24.27
2023-10-23T01:48:36.499Z,24.26
2023-10-23T01:48:46.527Z,24.27
2023-10-23T01:48:56.576Z,24.26
2023-10-23T01:49:06.593Z,24.26
2023-10-23T01:49:16.595Z,24.26
2023-10-23T01:49:26.597Z,24.26
2023-10-23T01:49:36.619Z,24.26
2023-10-23T01:49:46.626Z,24.25
2023-10-23T01:49:56.634Z,24.26
2023-10-23T01:50:06.652Z,24.26
2023-10-23T01:50:16.653Z,24.25
2023-10-23T01:50:26.660Z,24.26
2023-10-23T01:50:37.864Z,24.26
2023-10-23T01:50:46.723Z,24.22
2023-10-23T01:50:56.731Z,24.23
2023-10-23T01:51:06.743Z,24.24
2023-10-23T01:51:16.753Z,24.24
2023-10-23T01:51:26.789Z,24.25
2023-10-23T01:51:36.850Z,24.24
2023-10-23T01:51:46.995Z,24.24
2023-10-23T01:51:57.050Z,24.24
2023-10-23T01:52:07.072Z,24.24
2023-10-23T01:52:17.068Z,24.25
2023-10-23T01:52:27.086Z,24.25
2023-10-23T01:52:37.084Z,24.24
2023-10-23T01:52:47.096Z,24.24
2023-10-23T01:52:57.124Z,24.24
2023-10-23T01:53:07.117Z,24.24
2023-10-23T01:53:17.123Z,24.24
2023-10-23T01:53:27.120Z,24.25
2023-10-23T01:53:37.134Z,24.24
2023-10-23T01:53:47.250Z,24.24
2023-10-23T01:53:57.263Z,24.24
2023-10-23T01:54:07.280Z,24.24
2023-10-23T01:54:17.289Z,24.25
2023-10-23T01:54:27.346Z,24.24
2023-10-23T01:54:37.772Z,24.23
2023-10-23T01:54:47.656Z,24.23
2023-10-23T01:54:57.727Z,24.23
2023-10-23T01:55:07.738Z,24.23
2023-10-23T01:55:17.749Z,24.24
2023-10-23T01:55:27.766Z,24.24
2023-10-23T01:55:37.762Z,24.23
2023-10-23T01:55:47.781Z,24.24
2023-10-23T01:55:57.788Z,24.24
2023-10-23T01:56:07.821Z,24.23
2023-10-23T01:56:17.803Z,24.23
2023-10-23T01:56:27.828Z,24.23
2023-10-23T01:56:37.826Z,24.23
2023-10-23T01:56:47.834Z,24.23
2023-10-23T01:56:57.856Z,24.23
2023-10-23T01:57:07.860Z,24.22
2023-10-23T01:57:17.894Z,24.22
2023-10-23T01:57:27.929Z,24.22
2023-10-23T01:57:37.963Z,24.23
2023-10-23T01:57:48.057Z,24.23
2023-10-23T01:57:58.109Z,24.22
2023-10-23T01:58:08.149Z,24.22
2023-10-23T01:58:18.163Z,24.23
2023-10-23T01:58:28.172Z,24.22
2023-10-23T01:58:38.203Z,24.22
2023-10-23T01:58:48.188Z,24.22
2023-10-23T01:58:58.199Z,24.22
2023-10-23T01:59:08.208Z,24.22
2023-10-23T01:59:18.219Z,24.22
2023-10-23T01:59:28.227Z,24.22
2023-10-23T01:59:38.237Z,24.22
2023-10-23T01:59:48.249Z,24.22
2023-10-23T01:59:58.262Z,24.22
2023-10-23T02:00:08.273Z,24.22
2023-10-23T02:00:18.312Z,24.22
2023-10-23T02:00:28.377Z,24.21
2023-10-23T02:00:38.469Z,24.21
2023-10-23T02:00:48.632Z,24.22
2023-10-23T02:00:58.780Z,24.21
2023-10-23T02:01:08.866Z,24.21
2023-10-23T02:01:18.967Z,24.20
2023-10-23T02:01:29.360Z,24.21
2023-10-23T02:01:39.321Z,24.21
2023-10-23T02:01:49.350Z,24.21
2023-10-23T02:01:59.361Z,24.21
2023-10-23T02:02:09.366Z,24.21
2023-10-23T02:02:19.369Z,24.21
2023-10-23T02:02:29.507Z,24.21
2023-10-23T02:02:39.628Z,24.20
2023-10-23T02:02:49.591Z,24.20
2023-10-23T02:02:59.693Z,24.20
2023-10-23T02:03:09.961Z,24.20
2023-10-23T02:03:20.061Z,24.21
2023-10-23T02:03:30.047Z,24.20
2023-10-23T02:03:40.452Z,24.20
2023-10-23T02:03:50.540Z,24.20
2023-10-23T02:04:00.561Z,24.19
2023-10-23T02:04:10.841Z,24.20
2023-10-23T02:04:20.961Z,24.20
2023-10-23T02:04:31.038Z,24.20
2023-10-23T02:04:41.491Z,24.20
2023-10-23T02:04:51.323Z,24.18
2023-10-23T02:05:01.369Z,24.20
2023-10-23T02:05:11.368Z,24.19
2023-10-23T02:05:21.378Z,24.20
2023-10-23T02:05:31.388Z,24.20
2023-10-23T02:05:41.445Z,24.20
2023-10-23T02:05:51.458Z,24.19
2023-10-23T02:06:01.460Z,24.19
2023-10-23T02:06:11.468Z,24.19
2023-10-23T02:06:21.497Z,24.20
2023-10-23T02:06:31.549Z,24.18
2023-10-23T02:06:41.616Z,24.19
2023-10-23T02:06:51.719Z,24.18
2023-10-23T02:07:01.641Z,24.19
2023-10-23T02:07:11.659Z,24.20
2023-10-23T02:07:21.689Z,24.19
2023-10-23T02:07:31.672Z,24.19
2023-10-23T02:07:41.684Z,24.19
2023-10-23T02:07:51.691Z,24.20
2023-10-23T02:08:01.705Z,24.20
2023-10-23T02:08:11.721Z,24.19
2023-10-23T02:08:21.758Z,24.19
2023-10-23T02:08:31.773Z,24.18
2023-10-23T02:08:41.785Z,24.19
2023-10-23T02:08:51.794Z,24.19
2023-10-23T02:09:01.806Z,24.19
2023-10-23T02:09:11.833Z,24.18
2023-10-23T02:09:21.857Z,24.18